sensor_id;sensor_type;location;lat;lon;timestamp;P1;durP1;ratioP1;P2;durP2;ratioP2
20154;SDS011;10238;49.556;10.956;2023-04-01T00:01:48;3.42;;;1.75;;
20154;SDS011;10238;49.556;10.956;2023-04-01T00:04:36;1.30;;;1.20;;
20154;SDS011;10238;49.556;10.956;2023-04-01T00:07:24;1.70;;;1.60;;
20154;SDS011;10238;49.556;10.956;2023-04-01T00:10:15;3.38;;;1.30;;
20154;SDS011;10238;49.556;10.956;2023-04-01T00:13:03;4.55;;;1.60;;
20154;SDS011;10238;49.556;10.956;2023-04-01T00:15:53;2.92;;;1.58;;
20154;SDS011;10238;49.556;10.956;2023-04-01T00:18:42;3.78;;;1.50;;
20154;SDS011;10238;49.556;10.956;2023-04-01T00:21:30;2.10;;;1.40;;
20154;SDS011;10238;49.556;10.956;2023-04-01T00:24:18;4.40;;;2.60;;
20154;SDS011;10238;49.556;10.956;2023-04-01T00:27:06;3.47;;;1.73;;
20154;SDS011;10238;49.556;10.956;2023-04-01T00:29:54;3.08;;;1.73;;
20154;SDS011;10238;49.556;10.956;2023-04-01T00:32:43;3.10;;;2.28;;
20154;SDS011;10238;49.556;10.956;2023-04-01T00:35:31;2.40;;;2.20;;
20154;SDS011;10238;49.556;10.956;2023-04-01T00:38:19;3.42;;;1.50;;
20154;SDS011;10238;49.556;10.956;2023-04-01T00:41:08;2.63;;;1.20;;
20154;SDS011;10238;49.556;10.956;2023-04-01T00:44:14;2.55;;;1.60;;
20154;SDS011;10238;49.556;10.956;2023-04-01T00:47:03;4.50;;;1.52;;
20154;SDS011;10238;49.556;10.956;2023-04-01T00:49:53;2.97;;;1.38;;
20154;SDS011;10238;49.556;10.956;2023-04-01T00:52:42;6.18;;;1.33;;
20154;SDS011;10238;49.556;10.956;2023-04-01T00:55:30;1.10;;;1.02;;
20154;SDS011;10238;49.556;10.956;2023-04-01T00:58:24;1.90;;;1.30;;
20154;SDS011;10238;49.556;10.956;2023-04-01T01:01:16;3.72;;;1.35;;
20154;SDS011;10238;49.556;10.956;2023-04-01T01:04:04;3.10;;;1.20;;
20154;SDS011;10238;49.556;10.956;2023-04-01T01:06:54;3.55;;;1.23;;
20154;SDS011;10238;49.556;10.956;2023-04-01T01:09:51;2.00;;;1.27;;
20154;SDS011;10238;49.556;10.956;2023-04-01T01:12:49;2.20;;;1.40;;
20154;SDS011;10238;49.556;10.956;2023-04-01T01:15:49;3.85;;;1.20;;
20154;SDS011;10238;49.556;10.956;2023-04-01T01:18:43;4.82;;;2.15;;
20154;SDS011;10238;49.556;10.956;2023-04-01T01:21:42;3.72;;;2.10;;
20154;SDS011;10238;49.556;10.956;2023-04-01T01:24:53;4.45;;;2.03;;
20154;SDS011;10238;49.556;10.956;2023-04-01T01:27:56;3.03;;;2.05;;
20154;SDS011;10238;49.556;10.956;2023-04-01T01:30:51;2.25;;;2.05;;
20154;SDS011;10238;49.556;10.956;2023-04-01T01:33:50;2.95;;;2.17;;
20154;SDS011;10238;49.556;10.956;2023-04-01T01:36:58;3.05;;;2.40;;
20154;SDS011;10238;49.556;10.956;2023-04-01T01:39:50;3.17;;;2.97;;
20154;SDS011;10238;49.556;10.956;2023-04-01T01:42:41;3.45;;;3.10;;
20154;SDS011;10238;49.556;10.956;2023-04-01T01:45:34;3.63;;;2.67;;
20154;SDS011;10238;49.556;10.956;2023-04-01T01:48:26;2.85;;;2.67;;
20154;SDS011;10238;49.556;10.956;2023-04-01T01:51:16;3.65;;;2.00;;
20154;SDS011;10238;49.556;10.956;2023-04-01T01:54:05;2.78;;;2.05;;
20154;SDS011;10238;49.556;10.956;2023-04-01T01:56:59;4.38;;;1.65;;
20154;SDS011;10238;49.556;10.956;2023-04-01T01:59:52;3.53;;;3.00;;
20154;SDS011;10238;49.556;10.956;2023-04-01T02:02:44;2.75;;;1.65;;
20154;SDS011;10238;49.556;10.956;2023-04-01T02:05:34;2.58;;;1.70;;
20154;SDS011;10238;49.556;10.956;2023-04-01T02:08:25;1.85;;;1.65;;
20154;SDS011;10238;49.556;10.956;2023-04-01T02:11:18;3.55;;;1.70;;
20154;SDS011;10238;49.556;10.956;2023-04-01T02:14:13;4.70;;;1.60;;
20154;SDS011;10238;49.556;10.956;2023-04-01T02:17:04;3.13;;;1.27;;
20154;SDS011;10238;49.556;10.956;2023-04-01T02:19:56;4.55;;;1.10;;
20154;SDS011;10238;49.556;10.956;2023-04-01T02:22:47;0.85;;;0.82;;
20154;SDS011;10238;49.556;10.956;2023-04-01T02:25:36;3.72;;;1.48;;
20154;SDS011;10238;49.556;10.956;2023-04-01T02:28:27;1.70;;;1.10;;
20154;SDS011;10238;49.556;10.956;2023-04-01T02:31:18;2.38;;;1.33;;
20154;SDS011;10238;49.556;10.956;2023-04-01T02:34:06;4.50;;;1.08;;
20154;SDS011;10238;49.556;10.956;2023-04-01T02:36:54;1.67;;;1.30;;
20154;SDS011;10238;49.556;10.956;2023-04-01T02:39:43;3.08;;;1.27;;
20154;SDS011;10238;49.556;10.956;2023-04-01T02:42:31;1.75;;;1.00;;
20154;SDS011;10238;49.556;10.956;2023-04-01T02:45:21;1.67;;;0.90;;
20154;SDS011;10238;49.556;10.956;2023-04-01T02:48:09;2.53;;;1.25;;
20154;SDS011;10238;49.556;10.956;2023-04-01T02:50:58;1.33;;;1.00;;
20154;SDS011;10238;49.556;10.956;2023-04-01T02:53:46;1.52;;;1.10;;
20154;SDS011;10238;49.556;10.956;2023-04-01T02:56:34;1.40;;;1.10;;
20154;SDS011;10238;49.556;10.956;2023-04-01T02:59:22;5.03;;;1.27;;
20154;SDS011;10238;49.556;10.956;2023-04-01T03:02:11;1.88;;;0.93;;
20154;SDS011;10238;49.556;10.956;2023-04-01T03:04:59;3.90;;;1.70;;
20154;SDS011;10238;49.556;10.956;2023-04-01T03:07:47;2.83;;;1.20;;
20154;SDS011;10238;49.556;10.956;2023-04-01T03:10:35;2.65;;;1.10;;
20154;SDS011;10238;49.556;10.956;2023-04-01T03:13:23;1.63;;;1.10;;
20154;SDS011;10238;49.556;10.956;2023-04-01T03:16:11;3.17;;;1.17;;
20154;SDS011;10238;49.556;10.956;2023-04-01T03:19:00;2.17;;;1.20;;
20154;SDS011;10238;49.556;10.956;2023-04-01T03:21:49;3.08;;;1.17;;
20154;SDS011;10238;49.556;10.956;2023-04-01T03:24:36;3.78;;;1.20;;
20154;SDS011;10238;49.556;10.956;2023-04-01T03:27:24;2.08;;;1.10;;
20154;SDS011;10238;49.556;10.956;2023-04-01T03:30:12;3.17;;;1.23;;
20154;SDS011;10238;49.556;10.956;2023-04-01T03:33:02;2.95;;;1.25;;
20154;SDS011;10238;49.556;10.956;2023-04-01T03:35:52;1.50;;;1.30;;
20154;SDS011;10238;49.556;10.956;2023-04-01T03:38:40;3.17;;;1.50;;
20154;SDS011;10238;49.556;10.956;2023-04-01T03:41:30;2.17;;;1.23;;
20154;SDS011;10238;49.556;10.956;2023-04-01T03:44:19;3.50;;;1.63;;
20154;SDS011;10238;49.556;10.956;2023-04-01T03:47:07;1.90;;;1.25;;
20154;SDS011;10238;49.556;10.956;2023-04-01T03:49:55;5.05;;;1.40;;
20154;SDS011;10238;49.556;10.956;2023-04-01T03:52:45;3.70;;;1.55;;
20154;SDS011;10238;49.556;10.956;2023-04-01T03:55:32;1.67;;;1.30;;
20154;SDS011;10238;49.556;10.956;2023-04-01T03:58:23;2.13;;;1.20;;
20154;SDS011;10238;49.556;10.956;2023-04-01T04:01:18;3.30;;;1.42;;
20154;SDS011;10238;49.556;10.956;2023-04-01T04:04:10;1.77;;;1.40;;
20154;SDS011;10238;49.556;10.956;2023-04-01T04:07:00;2.40;;;1.85;;
20154;SDS011;10238;49.556;10.956;2023-04-01T04:09:49;3.80;;;1.70;;
20154;SDS011;10238;49.556;10.956;2023-04-01T04:12:37;2.47;;;1.52;;
20154;SDS011;10238;49.556;10.956;2023-04-01T04:15:25;4.35;;;1.60;;
20154;SDS011;10238;49.556;10.956;2023-04-01T04:18:13;5.45;;;1.40;;
20154;SDS011;10238;49.556;10.956;2023-04-01T04:21:01;3.50;;;2.13;;
20154;SDS011;10238;49.556;10.956;2023-04-01T04:23:50;3.30;;;1.70;;
20154;SDS011;10238;49.556;10.956;2023-04-01T04:26:39;3.33;;;1.70;;
20154;SDS011;10238;49.556;10.956;2023-04-01T04:29:27;2.45;;;0.98;;
20154;SDS011;10238;49.556;10.956;2023-04-01T04:32:14;2.42;;;1.60;;
20154;SDS011;10238;49.556;10.956;2023-04-01T04:35:02;2.60;;;1.58;;
20154;SDS011;10238;49.556;10.956;2023-04-01T04:37:51;1.60;;;1.40;;
20154;SDS011;10238;49.556;10.956;2023-04-01T04:40:39;2.90;;;1.30;;
20154;SDS011;10238;49.556;10.956;2023-04-01T04:43:30;1.40;;;1.30;;
20154;SDS011;10238;49.556;10.956;2023-04-01T04:46:18;2.20;;;1.25;;
20154;SDS011;10238;49.556;10.956;2023-04-01T04:49:06;1.92;;;1.25;;
20154;SDS011;10238;49.556;10.956;2023-04-01T04:51:54;3.70;;;1.30;;
20154;SDS011;10238;49.556;10.956;2023-04-01T04:54:42;1.33;;;1.27;;
20154;SDS011;10238;49.556;10.956;2023-04-01T04:57:31;1.33;;;1.23;;
20154;SDS011;10238;49.556;10.956;2023-04-01T05:00:20;3.47;;;1.30;;
20154;SDS011;10238;49.556;10.956;2023-04-01T05:03:08;2.00;;;1.25;;
20154;SDS011;10238;49.556;10.956;2023-04-01T05:05:57;3.50;;;1.30;;
20154;SDS011;10238;49.556;10.956;2023-04-01T05:08:45;1.20;;;1.10;;
20154;SDS011;10238;49.556;10.956;2023-04-01T05:11:33;2.25;;;1.02;;
20154;SDS011;10238;49.556;10.956;2023-04-01T05:14:21;3.90;;;1.40;;
20154;SDS011;10238;49.556;10.956;2023-04-01T05:17:10;3.72;;;1.40;;
20154;SDS011;10238;49.556;10.956;2023-04-01T05:19:59;2.28;;;1.58;;
20154;SDS011;10238;49.556;10.956;2023-04-01T05:22:47;2.13;;;1.90;;
20154;SDS011;10238;49.556;10.956;2023-04-01T05:25:37;2.90;;;1.13;;
20154;SDS011;10238;49.556;10.956;2023-04-01T05:28:25;2.47;;;1.67;;
20154;SDS011;10238;49.556;10.956;2023-04-01T05:31:13;2.55;;;1.38;;
20154;SDS011;10238;49.556;10.956;2023-04-01T05:34:03;2.90;;;2.22;;
20154;SDS011;10238;49.556;10.956;2023-04-01T05:36:50;3.35;;;1.50;;
20154;SDS011;10238;49.556;10.956;2023-04-01T05:39:38;3.10;;;1.52;;
20154;SDS011;10238;49.556;10.956;2023-04-01T05:42:29;2.65;;;2.03;;
20154;SDS011;10238;49.556;10.956;2023-04-01T05:45:17;1.60;;;1.50;;
20154;SDS011;10238;49.556;10.956;2023-04-01T05:48:06;4.50;;;2.63;;
20154;SDS011;10238;49.556;10.956;2023-04-01T05:50:57;6.15;;;3.47;;
20154;SDS011;10238;49.556;10.956;2023-04-01T05:53:45;4.90;;;3.83;;
20154;SDS011;10238;49.556;10.956;2023-04-01T05:56:33;2.90;;;2.70;;
20154;SDS011;10238;49.556;10.956;2023-04-01T05:59:21;2.45;;;2.08;;
20154;SDS011;10238;49.556;10.956;2023-04-01T06:02:09;3.15;;;2.17;;
20154;SDS011;10238;49.556;10.956;2023-04-01T06:05:01;2.92;;;1.95;;
20154;SDS011;10238;49.556;10.956;2023-04-01T06:08:00;2.38;;;2.28;;
20154;SDS011;10238;49.556;10.956;2023-04-01T06:10:58;2.70;;;2.60;;
20154;SDS011;10238;49.556;10.956;2023-04-01T06:14:13;2.85;;;2.65;;
20154;SDS011;10238;49.556;10.956;2023-04-01T06:17:15;2.28;;;1.98;;
20154;SDS011;10238;49.556;10.956;2023-04-01T06:20:16;2.20;;;2.10;;
20154;SDS011;10238;49.556;10.956;2023-04-01T06:29:29;5.30;;;2.13;;
20154;SDS011;10238;49.556;10.956;2023-04-01T06:32:32;2.20;;;2.10;;
20154;SDS011;10238;49.556;10.956;2023-04-01T06:35:38;2.25;;;2.22;;
20154;SDS011;10238;49.556;10.956;2023-04-01T06:38:54;1.70;;;1.50;;
20154;SDS011;10238;49.556;10.956;2023-04-01T06:42:06;2.10;;;1.25;;
20154;SDS011;10238;49.556;10.956;2023-04-01T06:45:08;1.60;;;1.50;;
20154;SDS011;10238;49.556;10.956;2023-04-01T06:48:11;3.38;;;1.20;;
20154;SDS011;10238;49.556;10.956;2023-04-01T06:51:15;1.95;;;1.27;;
20154;SDS011;10238;49.556;10.956;2023-04-01T06:54:12;1.73;;;1.50;;
20154;SDS011;10238;49.556;10.956;2023-04-01T06:57:05;3.78;;;1.50;;
20154;SDS011;10238;49.556;10.956;2023-04-01T07:00:11;2.88;;;1.63;;
20154;SDS011;10238;49.556;10.956;2023-04-01T07:03:10;2.10;;;2.00;;
20154;SDS011;10238;49.556;10.956;2023-04-01T07:06:08;3.03;;;2.83;;
20154;SDS011;10238;49.556;10.956;2023-04-01T07:09:02;6.72;;;6.35;;
20154;SDS011;10238;49.556;10.956;2023-04-01T07:11:55;2.30;;;1.42;;
20154;SDS011;10238;49.556;10.956;2023-04-01T07:14:47;2.55;;;1.70;;
20154;SDS011;10238;49.556;10.956;2023-04-01T07:17:37;2.53;;;1.33;;
20154;SDS011;10238;49.556;10.956;2023-04-01T07:20:28;4.88;;;1.95;;
20154;SDS011;10238;49.556;10.956;2023-04-01T07:23:21;2.20;;;2.00;;
20154;SDS011;10238;49.556;10.956;2023-04-01T07:26:14;3.08;;;2.40;;
20154;SDS011;10238;49.556;10.956;2023-04-01T07:29:08;2.72;;;2.53;;
20154;SDS011;10238;49.556;10.956;2023-04-01T07:32:04;2.20;;;2.00;;
20154;SDS011;10238;49.556;10.956;2023-04-01T07:35:17;3.35;;;1.98;;
20154;SDS011;10238;49.556;10.956;2023-04-01T07:38:14;3.03;;;2.10;;
20154;SDS011;10238;49.556;10.956;2023-04-01T07:41:12;3.08;;;1.50;;
20154;SDS011;10238;49.556;10.956;2023-04-01T07:44:12;3.08;;;1.42;;
20154;SDS011;10238;49.556;10.956;2023-04-01T07:47:19;1.95;;;1.33;;
20154;SDS011;10238;49.556;10.956;2023-04-01T07:50:21;2.88;;;2.28;;
20154;SDS011;10238;49.556;10.956;2023-04-01T07:53:15;2.50;;;1.88;;
20154;SDS011;10238;49.556;10.956;2023-04-01T07:56:12;3.30;;;2.40;;
20154;SDS011;10238;49.556;10.956;2023-04-01T07:59:07;3.50;;;3.30;;
20154;SDS011;10238;49.556;10.956;2023-04-01T08:02:06;2.88;;;2.47;;
20154;SDS011;10238;49.556;10.956;2023-04-01T08:05:04;4.28;;;3.25;;
20154;SDS011;10238;49.556;10.956;2023-04-01T08:08:03;3.47;;;3.28;;
20154;SDS011;10238;49.556;10.956;2023-04-01T08:11:02;4.22;;;3.72;;
20154;SDS011;10238;49.556;10.956;2023-04-01T08:14:01;4.50;;;4.10;;
20154;SDS011;10238;49.556;10.956;2023-04-01T08:17:00;6.25;;;4.72;;
20154;SDS011;10238;49.556;10.956;2023-04-01T08:19:55;3.38;;;2.60;;
20154;SDS011;10238;49.556;10.956;2023-04-01T08:22:56;3.55;;;3.35;;
20154;SDS011;10238;49.556;10.956;2023-04-01T08:25:48;2.30;;;2.10;;
20154;SDS011;10238;49.556;10.956;2023-04-01T08:28:41;3.53;;;2.67;;
20154;SDS011;10238;49.556;10.956;2023-04-01T08:31:34;3.60;;;2.25;;
20154;SDS011;10238;49.556;10.956;2023-04-01T08:34:30;4.30;;;2.95;;
20154;SDS011;10238;49.556;10.956;2023-04-01T08:37:24;5.82;;;4.22;;
20154;SDS011;10238;49.556;10.956;2023-04-01T08:40:25;3.88;;;3.05;;
20154;SDS011;10238;49.556;10.956;2023-04-01T08:46:49;4.60;;;3.22;;
20154;SDS011;10238;49.556;10.956;2023-04-01T08:50:01;11.32;;;5.85;;
20154;SDS011;10238;49.556;10.956;2023-04-01T08:53:21;7.15;;;4.75;;
20154;SDS011;10238;49.556;10.956;2023-04-01T08:56:20;4.38;;;3.97;;
20154;SDS011;10238;49.556;10.956;2023-04-01T08:59:18;4.50;;;4.00;;
20154;SDS011;10238;49.556;10.956;2023-04-01T09:13:14;2.80;;;2.60;;
20154;SDS011;10238;49.556;10.956;2023-04-01T09:16:22;2.55;;;2.40;;
20154;SDS011;10238;49.556;10.956;2023-04-01T09:19:28;4.90;;;4.60;;
20154;SDS011;10238;49.556;10.956;2023-04-01T09:22:38;2.33;;;2.08;;
20154;SDS011;10238;49.556;10.956;2023-04-01T09:25:38;3.35;;;3.15;;
20154;SDS011;10238;49.556;10.956;2023-04-01T09:28:42;3.38;;;3.08;;
20154;SDS011;10238;49.556;10.956;2023-04-01T09:31:42;5.45;;;5.22;;
20154;SDS011;10238;49.556;10.956;2023-04-01T09:34:43;5.95;;;5.75;;
20154;SDS011;10238;49.556;10.956;2023-04-01T09:37:48;3.40;;;3.20;;
20154;SDS011;10238;49.556;10.956;2023-04-01T09:40:43;8.93;;;8.43;;
20154;SDS011;10238;49.556;10.956;2023-04-01T09:43:52;5.88;;;5.13;;
20154;SDS011;10238;49.556;10.956;2023-04-01T09:46:52;5.72;;;5.47;;
20154;SDS011;10238;49.556;10.956;2023-04-01T09:49:57;5.05;;;4.75;;
20154;SDS011;10238;49.556;10.956;2023-04-01T09:53:07;6.70;;;6.28;;
20154;SDS011;10238;49.556;10.956;2023-04-01T09:56:32;5.10;;;4.43;;
20154;SDS011;10238;49.556;10.956;2023-04-01T10:10:03;2.20;;;2.10;;
20154;SDS011;10238;49.556;10.956;2023-04-01T10:20:40;1.80;;;1.70;;
20154;SDS011;10238;49.556;10.956;2023-04-01T10:24:12;1.85;;;1.85;;
20154;SDS011;10238;49.556;10.956;2023-04-01T10:30:47;1.40;;;1.40;;
20154;SDS011;10238;49.556;10.956;2023-04-01T10:34:05;1.23;;;1.23;;
20154;SDS011;10238;49.556;10.956;2023-04-01T10:37:20;1.90;;;1.70;;
20154;SDS011;10238;49.556;10.956;2023-04-01T10:40:36;1.30;;;1.25;;
20154;SDS011;10238;49.556;10.956;2023-04-01T10:51:16;1.48;;;1.38;;
20154;SDS011;10238;49.556;10.956;2023-04-01T10:54:16;2.38;;;2.15;;
20154;SDS011;10238;49.556;10.956;2023-04-01T10:57:28;2.92;;;2.28;;
20154;SDS011;10238;49.556;10.956;2023-04-01T11:00:38;2.33;;;2.10;;
20154;SDS011;10238;49.556;10.956;2023-04-01T11:11:24;2.47;;;2.38;;
20154;SDS011;10238;49.556;10.956;2023-04-01T11:14:48;2.63;;;2.28;;
20154;SDS011;10238;49.556;10.956;2023-04-01T11:18:08;2.75;;;2.00;;
20154;SDS011;10238;49.556;10.956;2023-04-01T11:25:04;2.00;;;1.90;;
20154;SDS011;10238;49.556;10.956;2023-04-01T11:28:24;2.15;;;2.05;;
20154;SDS011;10238;49.556;10.956;2023-04-01T11:34:44;1.97;;;1.87;;
20154;SDS011;10238;49.556;10.956;2023-04-01T11:37:45;2.00;;;1.90;;
20154;SDS011;10238;49.556;10.956;2023-04-01T11:40:51;2.10;;;1.90;;
20154;SDS011;10238;49.556;10.956;2023-04-01T11:46:48;4.30;;;3.83;;
20154;SDS011;10238;49.556;10.956;2023-04-01T11:49:53;4.35;;;3.95;;
20154;SDS011;10238;49.556;10.956;2023-04-01T11:53:19;3.67;;;3.38;;
20154;SDS011;10238;49.556;10.956;2023-04-01T11:56:21;2.58;;;2.38;;
20154;SDS011;10238;49.556;10.956;2023-04-01T11:59:27;2.65;;;2.45;;
20154;SDS011;10238;49.556;10.956;2023-04-01T12:02:29;3.67;;;3.38;;
20154;SDS011;10238;49.556;10.956;2023-04-01T12:05:33;2.97;;;2.78;;
20154;SDS011;10238;49.556;10.956;2023-04-01T12:08:32;2.40;;;2.20;;
20154;SDS011;10238;49.556;10.956;2023-04-01T12:11:32;3.40;;;3.30;;
20154;SDS011;10238;49.556;10.956;2023-04-01T12:14:30;2.00;;;1.90;;
20154;SDS011;10238;49.556;10.956;2023-04-01T12:17:31;4.07;;;2.97;;
20154;SDS011;10238;49.556;10.956;2023-04-01T12:20:30;2.78;;;2.58;;
20154;SDS011;10238;49.556;10.956;2023-04-01T12:23:42;2.80;;;2.60;;
20154;SDS011;10238;49.556;10.956;2023-04-01T12:26:57;2.60;;;2.40;;
20154;SDS011;10238;49.556;10.956;2023-04-01T12:30:21;2.72;;;2.53;;
20154;SDS011;10238;49.556;10.956;2023-04-01T12:33:52;2.60;;;2.50;;
20154;SDS011;10238;49.556;10.956;2023-04-01T12:37:03;2.53;;;2.42;;
20154;SDS011;10238;49.556;10.956;2023-04-01T12:40:06;2.80;;;2.70;;
20154;SDS011;10238;49.556;10.956;2023-04-01T12:46:51;2.28;;;2.17;;
20154;SDS011;10238;49.556;10.956;2023-04-01T12:49:53;2.42;;;2.33;;
20154;SDS011;10238;49.556;10.956;2023-04-01T12:53:01;2.22;;;2.13;;
20154;SDS011;10238;49.556;10.956;2023-04-01T12:56:07;2.30;;;2.20;;
20154;SDS011;10238;49.556;10.956;2023-04-01T13:02:20;2.25;;;2.20;;
20154;SDS011;10238;49.556;10.956;2023-04-01T13:05:39;2.40;;;2.30;;
20154;SDS011;10238;49.556;10.956;2023-04-01T13:08:48;1.75;;;1.70;;
20154;SDS011;10238;49.556;10.956;2023-04-01T13:11:49;1.90;;;1.80;;
20154;SDS011;10238;49.556;10.956;2023-04-01T13:15:00;1.75;;;1.75;;
20154;SDS011;10238;49.556;10.956;2023-04-01T13:18:24;2.80;;;2.70;;
20154;SDS011;10238;49.556;10.956;2023-04-01T13:21:26;2.78;;;2.67;;
20154;SDS011;10238;49.556;10.956;2023-04-01T13:24:35;2.55;;;2.45;;
20154;SDS011;10238;49.556;10.956;2023-04-01T13:27:37;7.60;;;7.30;;
20154;SDS011;10238;49.556;10.956;2023-04-01T13:30:30;8.77;;;8.45;;
20154;SDS011;10238;49.556;10.956;2023-04-01T13:33:27;9.20;;;8.80;;
20154;SDS011;10238;49.556;10.956;2023-04-01T13:36:26;10.40;;;9.90;;
20154;SDS011;10238;49.556;10.956;2023-04-01T13:42:45;8.48;;;8.15;;
20154;SDS011;10238;49.556;10.956;2023-04-01T13:45:41;10.32;;;9.93;;
20154;SDS011;10238;49.556;10.956;2023-04-01T13:48:47;12.13;;;11.27;;
20154;SDS011;10238;49.556;10.956;2023-04-01T13:51:59;9.55;;;9.25;;
20154;SDS011;10238;49.556;10.956;2023-04-01T14:01:42;7.32;;;7.03;;
20154;SDS011;10238;49.556;10.956;2023-04-01T14:04:42;7.60;;;7.30;;
20154;SDS011;10238;49.556;10.956;2023-04-01T14:07:47;6.78;;;6.57;;
20154;SDS011;10238;49.556;10.956;2023-04-01T14:10:47;7.30;;;7.10;;
20154;SDS011;10238;49.556;10.956;2023-04-01T14:13:48;6.47;;;6.28;;
20154;SDS011;10238;49.556;10.956;2023-04-01T14:20:15;5.60;;;5.40;;
20154;SDS011;10238;49.556;10.956;2023-04-01T14:23:13;5.82;;;5.63;;
20154;SDS011;10238;49.556;10.956;2023-04-01T14:29:34;5.15;;;4.97;;
20154;SDS011;10238;49.556;10.956;2023-04-01T14:32:43;4.85;;;4.75;;
20154;SDS011;10238;49.556;10.956;2023-04-01T14:35:41;4.60;;;4.50;;
20154;SDS011;10238;49.556;10.956;2023-04-01T14:38:42;3.53;;;3.42;;
20154;SDS011;10238;49.556;10.956;2023-04-01T14:41:45;3.95;;;3.85;;
20154;SDS011;10238;49.556;10.956;2023-04-01T14:44:53;4.20;;;4.10;;
20154;SDS011;10238;49.556;10.956;2023-04-01T14:47:49;4.13;;;4.03;;
20154;SDS011;10238;49.556;10.956;2023-04-01T14:50:42;3.60;;;3.50;;
20154;SDS011;10238;49.556;10.956;2023-04-01T14:53:34;3.70;;;3.60;;
20154;SDS011;10238;49.556;10.956;2023-04-01T14:56:41;4.35;;;4.25;;
20154;SDS011;10238;49.556;10.956;2023-04-01T14:59:39;4.65;;;4.45;;
20154;SDS011;10238;49.556;10.956;2023-04-01T15:02:35;2.72;;;2.53;;
20154;SDS011;10238;49.556;10.956;2023-04-01T15:05:38;3.10;;;3.00;;
20154;SDS011;10238;49.556;10.956;2023-04-01T15:08:38;2.10;;;2.00;;
20154;SDS011;10238;49.556;10.956;2023-04-01T15:11:42;2.72;;;2.63;;
20154;SDS011;10238;49.556;10.956;2023-04-01T15:14:51;2.67;;;2.47;;
20154;SDS011;10238;49.556;10.956;2023-04-01T15:18:06;2.33;;;2.22;;
20154;SDS011;10238;49.556;10.956;2023-04-01T15:21:08;2.28;;;2.17;;
20154;SDS011;10238;49.556;10.956;2023-04-01T15:24:14;1.80;;;1.70;;
20154;SDS011;10238;49.556;10.956;2023-04-01T15:30:21;1.77;;;1.67;;
20154;SDS011;10238;49.556;10.956;2023-04-01T15:33:20;1.67;;;1.63;;
20154;SDS011;10238;49.556;10.956;2023-04-01T15:36:29;1.50;;;1.40;;
20154;SDS011;10238;49.556;10.956;2023-04-01T15:39:28;1.80;;;1.70;;
20154;SDS011;10238;49.556;10.956;2023-04-01T15:42:31;1.67;;;1.67;;
20154;SDS011;10238;49.556;10.956;2023-04-01T15:45:33;1.65;;;1.60;;
20154;SDS011;10238;49.556;10.956;2023-04-01T15:48:31;1.50;;;1.50;;
20154;SDS011;10238;49.556;10.956;2023-04-01T15:51:39;1.80;;;1.70;;
20154;SDS011;10238;49.556;10.956;2023-04-01T15:58:04;1.90;;;1.70;;
20154;SDS011;10238;49.556;10.956;2023-04-01T16:01:14;1.83;;;1.73;;
20154;SDS011;10238;49.556;10.956;2023-04-01T16:04:26;1.27;;;1.27;;
20154;SDS011;10238;49.556;10.956;2023-04-01T16:07:46;1.60;;;1.60;;
20154;SDS011;10238;49.556;10.956;2023-04-01T16:10:44;1.60;;;1.60;;
20154;SDS011;10238;49.556;10.956;2023-04-01T16:13:46;1.80;;;1.70;;
20154;SDS011;10238;49.556;10.956;2023-04-01T16:16:46;2.10;;;1.90;;
20154;SDS011;10238;49.556;10.956;2023-04-01T16:19:51;1.98;;;1.88;;
20154;SDS011;10238;49.556;10.956;2023-04-01T16:22:46;2.42;;;2.13;;
20154;SDS011;10238;49.556;10.956;2023-04-01T16:25:43;2.30;;;2.20;;
20154;SDS011;10238;49.556;10.956;2023-04-01T16:28:37;2.50;;;2.30;;
20154;SDS011;10238;49.556;10.956;2023-04-01T16:31:37;2.60;;;2.40;;
20154;SDS011;10238;49.556;10.956;2023-04-01T16:34:34;3.33;;;3.13;;
20154;SDS011;10238;49.556;10.956;2023-04-01T16:37:29;3.42;;;3.22;;
20154;SDS011;10238;49.556;10.956;2023-04-01T16:40:32;3.58;;;3.38;;
20154;SDS011;10238;49.556;10.956;2023-04-01T16:43:28;5.78;;;5.28;;
20154;SDS011;10238;49.556;10.956;2023-04-01T16:46:30;5.30;;;4.80;;
20154;SDS011;10238;49.556;10.956;2023-04-01T16:49:25;5.65;;;5.35;;
20154;SDS011;10238;49.556;10.956;2023-04-01T16:52:29;6.22;;;5.93;;
20154;SDS011;10238;49.556;10.956;2023-04-01T16:55:22;6.90;;;6.50;;
20154;SDS011;10238;49.556;10.956;2023-04-01T16:58:22;6.45;;;5.97;;
20154;SDS011;10238;49.556;10.956;2023-04-01T17:01:13;2.90;;;2.80;;
20154;SDS011;10238;49.556;10.956;2023-04-01T17:04:11;6.10;;;5.80;;
20154;SDS011;10238;49.556;10.956;2023-04-01T17:07:10;2.53;;;2.42;;
20154;SDS011;10238;49.556;10.956;2023-04-01T17:10:10;2.30;;;2.05;;
20154;SDS011;10238;49.556;10.956;2023-04-01T17:13:18;1.92;;;1.88;;
20154;SDS011;10238;49.556;10.956;2023-04-01T17:16:38;1.88;;;1.77;;
20154;SDS011;10238;49.556;10.956;2023-04-01T17:19:42;2.85;;;1.88;;
20154;SDS011;10238;49.556;10.956;2023-04-01T17:22:37;2.17;;;1.70;;
20154;SDS011;10238;49.556;10.956;2023-04-01T17:25:47;1.50;;;1.50;;
20154;SDS011;10238;49.556;10.956;2023-04-01T17:28:50;2.33;;;1.70;;
20154;SDS011;10238;49.556;10.956;2023-04-01T17:31:45;1.60;;;1.50;;
20154;SDS011;10238;49.556;10.956;2023-04-01T17:34:46;2.03;;;1.25;;
20154;SDS011;10238;49.556;10.956;2023-04-01T17:37:52;1.80;;;1.70;;
20154;SDS011;10238;49.556;10.956;2023-04-01T17:40:50;1.95;;;1.45;;
20154;SDS011;10238;49.556;10.956;2023-04-01T17:43:47;1.52;;;1.40;;
20154;SDS011;10238;49.556;10.956;2023-04-01T17:46:46;2.33;;;1.95;;
20154;SDS011;10238;49.556;10.956;2023-04-01T17:50:13;2.00;;;1.90;;
20154;SDS011;10238;49.556;10.956;2023-04-01T17:53:17;1.95;;;1.85;;
20154;SDS011;10238;49.556;10.956;2023-04-01T17:56:17;2.40;;;2.20;;
20154;SDS011;10238;49.556;10.956;2023-04-01T17:59:15;2.30;;;2.20;;
20154;SDS011;10238;49.556;10.956;2023-04-01T18:02:16;2.10;;;2.00;;
20154;SDS011;10238;49.556;10.956;2023-04-01T18:05:24;3.65;;;2.10;;
20154;SDS011;10238;49.556;10.956;2023-04-01T18:08:25;2.30;;;2.10;;
20154;SDS011;10238;49.556;10.956;2023-04-01T18:11:34;2.42;;;2.00;;
20154;SDS011;10238;49.556;10.956;2023-04-01T18:14:53;2.80;;;2.60;;
20154;SDS011;10238;49.556;10.956;2023-04-01T18:18:02;2.72;;;2.63;;
20154;SDS011;10238;49.556;10.956;2023-04-01T18:21:13;2.95;;;2.75;;
20154;SDS011;10238;49.556;10.956;2023-04-01T18:24:11;3.10;;;3.00;;
20154;SDS011;10238;49.556;10.956;2023-04-01T18:27:09;3.40;;;3.20;;
20154;SDS011;10238;49.556;10.956;2023-04-01T18:30:11;3.60;;;3.40;;
20154;SDS011;10238;49.556;10.956;2023-04-01T18:33:03;3.70;;;3.40;;
20154;SDS011;10238;49.556;10.956;2023-04-01T18:35:58;4.18;;;3.92;;
20154;SDS011;10238;49.556;10.956;2023-04-01T18:38:57;5.68;;;5.38;;
20154;SDS011;10238;49.556;10.956;2023-04-01T18:41:54;4.53;;;4.22;;
20154;SDS011;10238;49.556;10.956;2023-04-01T18:44:53;6.30;;;5.90;;
20154;SDS011;10238;49.556;10.956;2023-04-01T18:47:54;4.32;;;4.03;;
20154;SDS011;10238;49.556;10.956;2023-04-01T18:50:53;5.13;;;4.78;;
20154;SDS011;10238;49.556;10.956;2023-04-01T18:53:47;3.60;;;2.00;;
20154;SDS011;10238;49.556;10.956;2023-04-01T18:56:40;4.47;;;4.15;;
20154;SDS011;10238;49.556;10.956;2023-04-01T18:59:32;4.10;;;3.92;;
20154;SDS011;10238;49.556;10.956;2023-04-01T19:02:27;4.60;;;4.30;;
20154;SDS011;10238;49.556;10.956;2023-04-01T19:05:23;6.53;;;6.22;;
20154;SDS011;10238;49.556;10.956;2023-04-01T19:08:20;4.90;;;4.60;;
20154;SDS011;10238;49.556;10.956;2023-04-01T19:11:16;5.40;;;5.00;;
20154;SDS011;10238;49.556;10.956;2023-04-01T19:14:18;5.30;;;5.10;;